Time;durP1;ratioP1;P1;durP2;ratioP2;P2;SDS_P1;SDS_P2;PMS_P1;PMS_P2;Temp;Humidity;BMP_temperature;BMP_pressure;BME280_temperature;BME280_humidity;BME280_pressure;Samples;Min_cycle;Max_cycle;Signal;HPM_P1;HPM_P2
2023/10/03 00:00:44;;;;;;;18.85;4.93;;;22.10;99.90;;;;;;4216107;28;20166;-87
2023/10/03 00:02:45;;;;;;;20.08;5.05;;;22.20;99.90;;;;;;4216049;28;20182;-86
2023/10/03 00:04:46;;;;;;;14.18;4.05;;;22.10;99.90;;;;;;4216115;28;20239;-91
2023/10/03 00:06:46;;;;;;;19.10;4.90;;;22.10;99.90;;;;;;4199232;28;20721;-89
2023/10/03 00:08:48;;;;;;;18.70;4.30;;;22.10;99.90;;;;;;4199216;28;20167;-86
2023/10/03 00:10:49;;;;;;;14.65;4.38;;;22.10;99.90;;;;;;4199094;28;20210;-86
2023/10/03 00:12:51;;;;;;;14.20;4.82;;;22.20;99.90;;;;;;4215700;28;20615;-93
2023/10/03 00:14:52;;;;;;;19.17;5.65;;;22.20;99.90;;;;;;4215678;28;20197;-87
2023/10/03 00:16:54;;;;;;;14.27;4.30;;;22.10;99.90;;;;;;4215645;28;20257;-86
2023/10/03 00:18:55;;;;;;;14.13;4.43;;;22.00;99.90;;;;;;4198990;28;20210;-87
2023/10/03 00:20:56;;;;;;;18.63;4.95;;;21.80;99.90;;;;;;4215572;28;20208;-86
2023/10/03 00:22:56;;;;;;;22.48;4.20;;;21.80;99.90;;;;;;4198649;28;20186;-92
2023/10/03 00:24:57;;;;;;;13.80;4.28;;;21.80;99.90;;;;;;4215589;28;20183;-87
2023/10/03 00:26:59;;;;;;;13.02;4.53;;;21.80;99.90;;;;;;4198751;28;20175;-87
2023/10/03 00:29:00;;;;;;;14.95;4.75;;;21.80;99.90;;;;;;4198958;28;20750;-86
2023/10/03 00:31:00;;;;;;;13.90;4.22;;;21.80;99.90;;;;;;4215499;28;20170;-86
2023/10/03 00:33:04;;;;;;;12.57;4.10;;;21.80;99.90;;;;;;4198824;28;20687;-87
2023/10/03 00:35:06;;;;;;;15.35;4.35;;;21.70;99.90;;;;;;4215285;28;20259;-86
2023/10/03 00:37:07;;;;;;;12.57;4.15;;;21.70;99.90;;;;;;4198581;28;20171;-87
2023/10/03 00:39:09;;;;;;;14.60;3.60;;;21.80;99.90;;;;;;4198728;28;20258;-86
2023/10/03 00:41:10;;;;;;;14.65;4.13;;;21.90;99.90;;;;;;4215313;28;20269;-87
2023/10/03 00:43:12;;;;;;;17.17;4.80;;;21.90;99.90;;;;;;4198549;28;20166;-87
2023/10/03 00:45:21;;;;;;;19.08;4.65;;;21.90;99.90;;;;;;4215228;28;20221;-86
2023/10/03 00:47:22;;;;;;;14.30;4.43;;;21.70;99.90;;;;;;4198432;28;20178;-87
2023/10/03 00:49:24;;;;;;;14.20;3.92;;;21.60;99.90;;;;;;4214907;28;20601;-86
2023/10/03 00:51:26;;;;;;;13.35;3.45;;;21.80;99.90;;;;;;4197672;28;20182;-86
2023/10/03 00:53:27;;;;;;;11.77;3.95;;;21.90;99.90;;;;;;4215086;28;20225;-86
2023/10/03 00:55:29;;;;;;;13.60;4.50;;;21.80;99.90;;;;;;4215151;28;20197;-86
2023/10/03 00:57:32;;;;;;;12.02;4.28;;;21.70;99.90;;;;;;4198301;28;20181;-86
2023/10/03 00:59:33;;;;;;;14.15;3.65;;;21.70;99.90;;;;;;4198089;28;20178;-87
2023/10/03 01:01:35;;;;;;;15.63;3.80;;;21.70;99.90;;;;;;4198231;28;20167;-86
2023/10/03 01:03:37;;;;;;;15.30;4.20;;;21.70;99.90;;;;;;4198176;28;20253;-86
2023/10/03 01:05:38;;;;;;;11.13;3.33;;;21.70;99.90;;;;;;4215221;28;20223;-87
2023/10/03 01:07:39;;;;;;;13.00;3.83;;;21.80;99.90;;;;;;4215038;28;20246;-87
2023/10/03 01:09:40;;;;;;;11.88;3.60;;;22.00;99.90;;;;;;4198093;28;20222;-87
2023/10/03 01:11:40;;;;;;;13.57;3.55;;;21.90;99.90;;;;;;4214722;28;20178;-86
2023/10/03 01:13:46;;;;;;;14.02;3.72;;;21.80;99.90;;;;;;4214929;28;20221;-86
2023/10/03 01:15:54;;;;;;;14.15;4.25;;;21.80;99.90;;;;;;4214838;28;20193;-86
2023/10/03 01:17:58;;;;;;;11.43;3.70;;;21.80;99.90;;;;;;4214671;28;20166;-86
2023/10/03 01:20:01;;;;;;;11.38;3.55;;;21.80;99.90;;;;;;4214743;28;20257;-86
2023/10/03 01:22:02;;;;;;;11.65;3.10;;;21.90;99.90;;;;;;4197920;28;20182;-87
2023/10/03 01:24:08;;;;;;;10.23;3.40;;;21.90;99.90;;;;;;4197939;28;20178;-86
2023/10/03 01:26:13;;;;;;;12.68;3.38;;;21.90;99.90;;;;;;4214825;28;20624;-86
2023/10/03 01:28:14;;;;;;;12.77;3.28;;;22.00;99.90;;;;;;4197670;28;20263;-86
2023/10/03 01:30:15;;;;;;;11.55;3.40;;;22.10;99.90;;;;;;4197844;28;20674;-87
2023/10/03 01:32:17;;;;;;;14.15;3.88;;;22.20;99.90;;;;;;4197522;28;20173;-92
2023/10/03 01:34:18;;;;;;;9.93;3.20;;;22.10;99.90;;;;;;4214393;28;20678;-87
2023/10/03 01:36:19;;;;;;;9.68;2.72;;;22.20;99.90;;;;;;4214439;28;20210;-87
2023/10/03 01:38:20;;;;;;;13.20;3.05;;;22.10;99.90;;;;;;4197522;28;20174;-87
2023/10/03 01:40:22;;;;;;;14.05;3.70;;;22.00;99.90;;;;;;4197379;28;20650;-87
2023/10/03 01:42:22;;;;;;;10.15;3.72;;;22.00;99.90;;;;;;4197723;28;20163;-87
2023/10/03 01:44:26;;;;;;;10.40;3.03;;;22.00;99.90;;;;;;4214385;28;20303;-86
2023/10/03 01:46:27;;;;;;;9.40;3.42;;;22.00;99.90;;;;;;4197419;28;20587;-86
2023/10/03 01:48:28;;;;;;;10.52;3.42;;;22.10;99.90;;;;;;4214471;28;20174;-86
2023/10/03 01:50:29;;;;;;;10.77;2.83;;;22.10;99.90;;;;;;4197727;28;20607;-86
2023/10/03 01:52:30;;;;;;;11.70;2.72;;;22.30;99.90;;;;;;4214411;28;20212;-88
2023/10/03 01:54:33;;;;;;;13.57;3.47;;;22.30;99.90;;;;;;4214200;28;20221;-86
2023/10/03 01:56:34;;;;;;;8.55;2.38;;;22.30;99.90;;;;;;4197445;28;20674;-87
2023/10/03 01:58:35;;;;;;;15.40;3.25;;;22.20;99.90;;;;;;4214354;28;20170;-86
2023/10/03 02:00:37;;;;;;;12.65;3.30;;;22.30;99.90;;;;;;4214106;28;20166;-86
2023/10/03 02:02:38;;;;;;;13.80;3.63;;;22.40;99.90;;;;;;4197121;28;20170;-86
2023/10/03 02:04:39;;;;;;;8.98;2.67;;;22.20;99.90;;;;;;4214011;28;20197;-87
2023/10/03 02:06:40;;;;;;;12.30;3.28;;;22.30;99.90;;;;;;4197409;28;20178;-86
2023/10/03 02:08:41;;;;;;;11.48;3.00;;;22.30;99.90;;;;;;4197553;28;20216;-86
2023/10/03 02:10:46;;;;;;;11.10;2.90;;;22.10;99.90;;;;;;4197403;28;20178;-92
2023/10/03 02:12:50;;;;;;;10.88;3.50;;;22.10;99.90;;;;;;4213992;28;20551;-86
2023/10/03 02:14:51;;;;;;;10.50;2.88;;;22.00;99.90;;;;;;4214110;28;20193;-86
2023/10/03 02:16:52;;;;;;;9.82;3.10;;;22.00;99.90;;;;;;4214029;28;20173;-86
2023/10/03 02:18:52;;;;;;;7.82;2.75;;;21.90;99.90;;;;;;4197296;28;20163;-86
2023/10/03 02:21:05;;;;;;;7.55;2.38;;;21.90;99.90;;;;;;4214030;28;20185;-87
2023/10/03 02:23:06;;;;;;;8.90;2.83;;;21.80;99.90;;;;;;4197095;28;20303;-86
2023/10/03 02:25:09;;;;;;;7.28;2.25;;;21.80;99.90;;;;;;4196870;28;20321;-86
2023/10/03 02:27:10;;;;;;;9.70;3.00;;;21.80;99.90;;;;;;4197303;28;20167;-86
2023/10/03 02:29:12;;;;;;;11.18;2.30;;;21.70;99.90;;;;;;4213939;28;20634;-86
2023/10/03 02:31:15;;;;;;;7.22;3.00;;;21.70;99.90;;;;;;4197336;28;20547;-87
2023/10/03 02:33:17;;;;;;;9.35;2.17;;;21.70;99.90;;;;;;4197272;28;20271;-86
2023/10/03 02:35:18;;;;;;;11.43;2.83;;;21.80;99.90;;;;;;4213971;28;20626;-88
2023/10/03 02:37:19;;;;;;;5.50;2.15;;;21.70;99.90;;;;;;4197355;28;20202;-86
2023/10/03 02:39:25;;;;;;;7.18;2.50;;;21.60;99.90;;;;;;4213849;28;20178;-85
2023/10/03 02:41:29;;;;;;;7.68;2.20;;;21.40;99.90;;;;;;4197222;28;20170;-92
2023/10/03 02:43:33;;;;;;;5.68;2.70;;;21.40;99.90;;;;;;4213871;28;20227;-86
2023/10/03 02:45:34;;;;;;;7.97;2.45;;;21.40;99.90;;;;;;4213888;28;20622;-87
2023/10/03 02:47:39;;;;;;;9.50;2.45;;;21.30;99.90;;;;;;4213881;28;20167;-86
2023/10/03 02:49:42;;;;;;;11.98;2.28;;;21.20;99.90;;;;;;4197203;28;20642;-86
2023/10/03 02:51:43;;;;;;;6.50;1.98;;;21.10;99.90;;;;;;4197225;28;20174;-86
2023/10/03 02:53:45;;;;;;;5.35;2.42;;;21.00;99.90;;;;;;4213979;28;20206;-87
2023/10/03 02:55:48;;;;;;;6.97;2.05;;;21.10;99.90;;;;;;4213835;28;20265;-86
2023/10/03 02:57:49;;;;;;;6.40;1.95;;;21.10;99.90;;;;;;4197006;28;20171;-86
2023/10/03 02:59:51;;;;;;;7.43;1.90;;;21.10;99.90;;;;;;4197049;28;20663;-87
2023/10/03 03:01:52;;;;;;;5.53;2.03;;;21.00;99.90;;;;;;4213682;28;20618;-86
2023/10/03 03:03:54;;;;;;;4.65;1.83;;;21.10;99.90;;;;;;4213572;28;20159;-86
2023/10/03 03:05:59;;;;;;;6.60;2.22;;;21.00;99.90;;;;;;4213683;28;20627;-86
2023/10/03 03:08:11;;;;;;;6.25;1.58;;;20.90;99.90;;;;;;4230607;28;20168;-86
2023/10/03 03:10:14;;;;;;;3.42;1.27;;;20.80;99.90;;;;;;4213661;28;20178;-86
2023/10/03 03:12:16;;;;;;;8.07;1.80;;;20.60;99.90;;;;;;4213791;28;20630;-86
2023/10/03 03:14:18;;;;;;;14.23;2.30;;;20.60;99.90;;;;;;4214971;28;20228;-86
2023/10/03 03:16:20;;;;;;;7.28;2.05;;;20.60;99.90;;;;;;4216469;28;20226;-86
2023/10/03 03:18:21;;;;;;;3.60;1.30;;;20.70;99.90;;;;;;4216685;28;20186;-86
2023/10/03 03:20:27;;;;;;;7.82;1.23;;;20.60;99.90;;;;;;4199890;28;20170;-86
2023/10/03 03:22:29;;;;;;;9.38;1.67;;;20.70;99.90;;;;;;4200281;28;20594;-86
2023/10/03 03:24:33;;;;;;;6.07;1.35;;;20.70;99.90;;;;;;4216705;28;20221;-86
2023/10/03 03:26:39;;;;;;;3.85;1.33;;;20.80;99.90;;;;;;4217764;28;20249;-86
2023/10/03 03:28:42;;;;;;;5.53;1.50;;;21.00;99.90;;;;;;4216451;28;20262;-85
2023/10/03 03:30:46;;;;;;;6.47;1.80;;;21.00;99.90;;;;;;4216376;28;20170;-85
2023/10/03 03:32:47;;;;;;;4.60;1.80;;;20.80;99.90;;;;;;4199602;28;20175;-86
2023/10/03 03:34:48;;;;;;;8.30;1.70;;;20.80;99.90;;;;;;4216172;28;20291;-88
2023/10/03 03:36:54;;;;;;;5.20;1.83;;;20.70;99.90;;;;;;4199563;28;20635;-86
2023/10/03 03:38:56;;;;;;;5.00;1.45;;;20.40;99.90;;;;;;4216421;28;20674;-86
2023/10/03 03:40:59;;;;;;;3.03;1.58;;;20.40;99.90;;;;;;4216389;28;20168;-87
2023/10/03 03:43:06;;;;;;;3.95;1.30;;;20.50;99.90;;;;;;4216301;28;20822;-86
2023/10/03 03:45:07;;;;;;;3.50;1.92;;;20.40;99.90;;;;;;4216362;28;20689;-85
2023/10/03 03:47:08;;;;;;;8.43;1.83;;;20.60;99.90;;;;;;4216355;28;20261;-89
2023/10/03 03:49:14;;;;;;;11.40;1.70;;;20.40;99.90;;;;;;4199705;28;20197;-88
2023/10/03 03:51:16;;;;;;;4.55;1.67;;;20.20;99.90;;;;;;4199482;28;20753;-86
2023/10/03 03:53:18;;;;;;;6.70;2.17;;;20.10;99.90;;;;;;4216197;28;20210;-86
2023/10/03 03:55:20;;;;;;;3.22;1.40;;;20.20;99.90;;;;;;4199257;28;20564;-89
2023/10/03 03:57:21;;;;;;;5.70;1.58;;;20.10;99.90;;;;;;4216045;28;20201;-87
2023/10/03 03:59:22;;;;;;;3.10;1.42;;;20.20;99.90;;;;;;4199253;28;20175;-88
2023/10/03 04:01:23;;;;;;;3.40;1.35;;;20.10;99.90;;;;;;4199138;28;20265;-87
2023/10/03 04:03:26;;;;;;;5.70;1.45;;;20.10;99.90;;;;;;4215738;28;20601;-87
2023/10/03 04:05:30;;;;;;;11.85;1.58;;;19.90;99.90;;;;;;4199078;28;20266;-87
2023/10/03 04:07:31;;;;;;;5.30;1.60;;;19.90;99.90;;;;;;4215563;28;20170;-88
2023/10/03 04:09:32;;;;;;;10.73;1.40;;;20.00;99.90;;;;;;4215820;28;20224;-87
2023/10/03 04:11:33;;;;;;;4.13;1.63;;;20.00;99.90;;;;;;4198846;28;20175;-87
2023/10/03 04:13:49;;;;;;;6.47;2.42;;;20.10;99.90;;;;;;4215629;28;20669;-87
2023/10/03 04:15:50;;;;;;;7.75;1.83;;;20.00;99.90;;;;;;4199184;28;20249;-88
2023/10/03 04:17:51;;;;;;;5.45;1.73;;;19.80;99.90;;;;;;4199092;28;20171;-93
2023/10/03 04:19:52;;;;;;;6.35;1.92;;;19.90;99.90;;;;;;4215726;28;20221;-94
2023/10/03 04:21:53;;;;;;;6.97;1.80;;;20.00;99.90;;;;;;4215615;28;20186;-87
2023/10/03 04:23:56;;;;;;;3.33;1.50;;;20.10;99.90;;;;;;4198946;28;20171;-88
2023/10/03 04:25:57;;;;;;;3.60;1.50;;;20.20;99.90;;;;;;4215606;28;20188;-87
2023/10/03 04:27:57;;;;;;;4.10;1.38;;;20.40;99.90;;;;;;4215699;28;20174;-87
2023/10/03 04:29:58;;;;;;;4.18;1.17;;;20.40;99.90;;;;;;4215803;28;20170;-87
2023/10/03 04:31:59;;;;;;;4.70;1.95;;;20.40;99.90;;;;;;4198522;28;20189;-88
2023/10/03 04:34:00;;;;;;;6.45;1.83;;;20.10;99.90;;;;;;4215399;28;20233;-87
2023/10/03 04:36:04;;;;;;;7.90;1.70;;;20.00;99.90;;;;;;4215550;28;20182;-89
2023/10/03 04:38:05;;;;;;;8.18;1.92;;;20.00;99.90;;;;;;4198400;28;20174;-88
2023/10/03 04:40:06;;;;;;;3.90;1.50;;;19.80;99.90;;;;;;4215337;28;20170;-88
2023/10/03 04:42:08;;;;;;;6.57;1.67;;;19.90;99.90;;;;;;4215198;28;20181;-88
2023/10/03 04:44:08;;;;;;;4.07;1.95;;;19.90;99.90;;;;;;4215213;28;20200;-90
2023/10/03 04:46:11;;;;;;;5.10;1.70;;;19.90;99.90;;;;;;4198458;28;20171;-88
2023/10/03 04:48:12;;;;;;;6.97;1.60;;;19.90;99.90;;;;;;4198503;28;20163;-88
2023/10/03 04:50:18;;;;;;;8.00;1.63;;;20.00;99.90;;;;;;4215303;28;20707;-88
2023/10/03 04:52:19;;;;;;;5.45;1.60;;;20.10;99.90;;;;;;4198355;28;20174;-88
2023/10/03 04:54:20;;;;;;;4.93;2.22;;;19.90;99.90;;;;;;4215158;28;20866;-89
2023/10/03 04:56:21;;;;;;;7.10;2.00;;;20.00;99.90;;;;;;4198235;28;20175;-88
2023/10/03 04:58:22;;;;;;;3.95;1.60;;;19.90;99.90;;;;;;4215305;28;20315;-88
2023/10/03 05:00:23;;;;;;;2.88;1.40;;;19.90;99.90;;;;;;4215128;28;20175;-94
2023/10/03 05:02:24;;;;;;;6.10;2.50;;;19.90;99.90;;;;;;4198137;28;20563;-89
2023/10/03 05:04:25;;;;;;;7.35;1.63;;;19.90;99.90;;;;;;4214921;28;20256;-88
2023/10/03 05:06:26;;;;;;;11.70;2.17;;;20.20;99.90;;;;;;4198177;28;20623;-87
2023/10/03 05:08:27;;;;;;;6.57;1.80;;;20.10;99.90;;;;;;4215957;28;20170;-87
2023/10/03 05:10:33;;;;;;;9.05;2.15;;;19.90;99.90;;;;;;4214912;28;20174;-88
2023/10/03 05:12:34;;;;;;;5.88;1.58;;;19.90;99.90;;;;;;4198722;28;20179;-87
2023/10/03 05:14:40;;;;;;;4.10;1.70;;;19.90;99.90;;;;;;4215378;28;20275;-87
2023/10/03 05:16:41;;;;;;;3.67;1.73;;;19.80;99.90;;;;;;4231170;28;20634;-87
2023/10/03 05:18:42;;;;;;;5.38;1.70;;;19.80;99.90;;;;;;4215526;28;20178;-86
2023/10/03 05:20:42;;;;;;;4.00;1.92;;;19.70;99.90;;;;;;4214731;28;20640;-87
2023/10/03 05:22:47;;;;;;;4.72;2.42;;;19.80;99.90;;;;;;4214464;28;20186;-86
2023/10/03 05:24:49;;;;;;;4.03;1.92;;;19.70;99.90;;;;;;4214427;28;20282;-87
2023/10/03 05:26:51;;;;;;;3.58;1.65;;;19.60;99.90;;;;;;4214726;28;20170;-87
2023/10/03 05:28:55;;;;;;;6.38;1.73;;;19.60;99.90;;;;;;4215399;28;20162;-93
2023/10/03 05:30:58;;;;;;;3.65;1.90;;;19.50;99.90;;;;;;4199689;28;20163;-86
2023/10/03 05:32:59;;;;;;;6.40;1.95;;;19.70;99.90;;;;;;4218670;28;20202;-87
2023/10/03 05:35:00;;;;;;;6.70;1.98;;;19.60;99.90;;;;;;4234382;28;20201;-87
2023/10/03 05:37:02;;;;;;;5.03;1.95;;;19.50;99.90;;;;;;4219228;28;20519;-87
2023/10/03 05:39:06;;;;;;;3.78;1.98;;;19.70;99.90;;;;;;4218881;28;20174;-87
2023/10/03 05:41:23;;;;;;;5.43;1.80;;;19.70;99.90;;;;;;4220134;28;20173;-87
2023/10/03 05:43:24;;;;;;;6.53;1.90;;;19.50;99.90;;;;;;4218720;28;20158;-87
2023/10/03 05:45:25;;;;;;;4.40;2.58;;;19.60;99.90;;;;;;4218328;28;20194;-87
2023/10/03 05:47:27;;;;;;;6.65;2.53;;;19.60;99.90;;;;;;4200855;28;20167;-87
2023/10/03 05:49:28;;;;;;;4.03;1.42;;;19.60;99.90;;;;;;4203907;28;20155;-87
2023/10/03 05:51:29;;;;;;;4.75;1.80;;;19.60;99.90;;;;;;4203187;28;20262;-87
2023/10/03 05:53:30;;;;;;;5.97;2.10;;;19.70;99.90;;;;;;4217955;28;20202;-87
2023/10/03 05:55:31;;;;;;;5.45;1.85;;;19.80;99.90;;;;;;4221869;28;20597;-86
2023/10/03 05:57:33;;;;;;;6.70;1.65;;;19.60;99.90;;;;;;4201655;28;20206;-87
2023/10/03 05:59:34;;;;;;;8.52;1.80;;;19.50;99.90;;;;;;4218964;28;20194;-94
2023/10/03 06:01:35;;;;;;;5.45;1.67;;;19.40;99.90;;;;;;4201629;28;20167;-87
2023/10/03 06:03:36;;;;;;;5.15;1.92;;;19.60;99.90;;;;;;4199519;28;20162;-87
2023/10/03 06:05:37;;;;;;;11.60;2.03;;;19.40;99.90;;;;;;4219996;28;20189;-86
2023/10/03 06:07:37;;;;;;;8.43;1.75;;;19.30;99.90;;;;;;4215691;28;20689;-87
2023/10/03 06:09:38;;;;;;;6.50;1.90;;;19.30;99.90;;;;;;4218167;28;20165;-92
2023/10/03 06:11:39;;;;;;;4.10;1.83;;;19.30;99.90;;;;;;4203429;28;20162;-88
2023/10/03 06:13:44;;;;;;;4.78;2.22;;;19.40;99.90;;;;;;4217190;28;20327;-87
2023/10/03 06:15:44;;;;;;;3.35;1.67;;;19.50;99.90;;;;;;4217908;28;20286;-87
2023/10/03 06:17:45;;;;;;;9.23;2.25;;;19.50;99.90;;;;;;4214586;28;20638;-86
2023/10/03 06:19:46;;;;;;;6.90;2.50;;;19.50;99.90;;;;;;4218211;28;20176;-87
2023/10/03 06:21:47;;;;;;;6.15;2.50;;;19.50;99.90;;;;;;4221135;28;20169;-88
2023/10/03 06:23:48;;;;;;;8.05;2.28;;;19.50;99.90;;;;;;4215745;28;20166;-88
2023/10/03 06:25:49;;;;;;;6.97;1.50;;;19.40;99.90;;;;;;4202806;28;20203;-87
2023/10/03 06:27:50;;;;;;;9.55;2.17;;;19.50;99.90;;;;;;4217326;28;20165;-88
2023/10/03 06:29:51;;;;;;;5.53;1.83;;;19.50;99.90;;;;;;4223058;28;20174;-90
2023/10/03 06:31:52;;;;;;;8.43;2.33;;;19.40;99.90;;;;;;4201515;28;20258;-88
2023/10/03 06:33:53;;;;;;;8.35;2.17;;;19.40;99.90;;;;;;4199827;28;20214;-87
2023/10/03 06:35:54;;;;;;;3.33;1.95;;;19.40;99.90;;;;;;4198508;28;20228;-86
2023/10/03 06:37:54;;;;;;;4.18;2.05;;;19.50;99.90;;;;;;4216711;28;20178;-86
2023/10/03 06:39:55;;;;;;;5.43;1.90;;;19.50;99.90;;;;;;4199248;28;20169;-87
2023/10/03 06:41:56;;;;;;;7.30;2.08;;;19.60;99.90;;;;;;4217184;28;20170;-87
2023/10/03 06:43:58;;;;;;;4.57;1.75;;;19.70;99.90;;;;;;4218673;28;20500;-87
2023/10/03 06:46:00;;;;;;;2.30;1.40;;;19.60;99.90;;;;;;4199184;28;20213;-87
2023/10/03 06:48:03;;;;;;;6.60;2.03;;;19.60;99.90;;;;;;4214734;28;20689;-87
2023/10/03 06:50:08;;;;;;;4.82;1.70;;;19.70;99.90;;;;;;4204971;28;20230;-87
2023/10/03 06:52:09;;;;;;;7.25;2.10;;;19.90;99.90;;;;;;4223421;28;20174;-89
2023/10/03 06:54:09;;;;;;;4.93;1.85;;;19.70;99.90;;;;;;4223402;28;20232;-87
2023/10/03 06:56:10;;;;;;;3.97;1.92;;;19.50;99.90;;;;;;4221763;28;20171;-86
2023/10/03 06:58:11;;;;;;;6.65;2.10;;;19.50;99.90;;;;;;4237950;28;20276;-87
2023/10/03 07:00:14;;;;;;;12.63;2.20;;;19.60;99.90;;;;;;4220757;28;20177;-87
2023/10/03 07:02:15;;;;;;;5.18;1.83;;;19.60;99.90;;;;;;4201556;28;20178;-87
2023/10/03 07:04:16;;;;;;;8.13;1.95;;;19.70;99.90;;;;;;4221654;28;20232;-86
2023/10/03 07:06:18;;;;;;;7.55;1.42;;;19.80;99.90;;;;;;4220940;28;20174;-87
2023/10/03 07:08:19;;;;;;;6.55;2.17;;;19.90;99.90;;;;;;4219459;28;20162;-86
2023/10/03 07:10:21;;;;;;;4.75;2.00;;;19.80;99.90;;;;;;4205806;28;20269;-86
2023/10/03 07:12:25;;;;;;;4.47;2.58;;;19.70;99.90;;;;;;4236682;28;20169;-87
2023/10/03 07:14:31;;;;;;;3.83;1.80;;;19.70;99.90;;;;;;4220493;28;20650;-88
2023/10/03 07:16:38;;;;;;;3.92;1.60;;;19.50;99.90;;;;;;4200961;28;20175;-86
2023/10/03 07:18:39;;;;;;;3.10;1.60;;;19.50;99.90;;;;;;4219045;28;20180;-87
2023/10/03 07:20:40;;;;;;;4.05;1.90;;;19.60;99.90;;;;;;4218809;28;20220;-86
2023/10/03 07:22:42;;;;;;;4.78;1.42;;;19.50;99.90;;;;;;4220080;28;20654;-87
2023/10/03 07:24:43;;;;;;;2.70;1.30;;;19.50;99.90;;;;;;4221026;28;20550;-87
2023/10/03 07:26:44;;;;;;;2.88;1.35;;;19.70;99.90;;;;;;4219952;28;20202;-91
2023/10/03 07:28:44;;;;;;;6.45;2.08;;;19.60;99.90;;;;;;4220517;28;20166;-87
2023/10/03 07:30:45;;;;;;;3.33;1.40;;;19.70;99.90;;;;;;4202850;28;20655;-87
2023/10/03 07:32:47;;;;;;;5.50;1.85;;;19.70;99.90;;;;;;4217320;28;20228;-87
2023/10/03 07:34:49;;;;;;;6.07;1.70;;;19.70;99.90;;;;;;4206928;28;20222;-87
2023/10/03 07:36:49;;;;;;;3.75;1.52;;;19.70;99.90;;;;;;4202835;28;20213;-87
2023/10/03 07:38:51;;;;;;;3.67;1.70;;;19.60;99.90;;;;;;4201735;28;20187;-87
2023/10/03 07:40:52;;;;;;;9.10;1.90;;;19.60;99.90;;;;;;4202921;28;20622;-87
2023/10/03 07:42:53;;;;;;;3.60;1.67;;;19.60;99.90;;;;;;4200447;28;20274;-87
2023/10/03 07:44:55;;;;;;;3.78;1.75;;;19.80;99.90;;;;;;4221705;28;20186;-87
2023/10/03 07:46:55;;;;;;;4.38;1.67;;;19.80;99.90;;;;;;4202876;28;20278;-86
2023/10/03 07:48:56;;;;;;;3.85;1.90;;;19.80;99.90;;;;;;4219074;28;20166;-87
2023/10/03 07:50:57;;;;;;;3.47;1.10;;;19.90;99.90;;;;;;4222510;28;20650;-87
2023/10/03 07:52:58;;;;;;;3.95;1.58;;;19.80;99.90;;;;;;4220713;28;20167;-86
2023/10/03 07:55:00;;;;;;;3.42;1.48;;;19.70;99.90;;;;;;4201525;28;20744;-86
2023/10/03 07:57:08;;;;;;;3.60;1.70;;;19.80;99.90;;;;;;4205767;28;20174;-86
2023/10/03 07:59:09;;;;;;;2.40;1.00;;;20.10;99.90;;;;;;4216711;28;20174;-86
2023/10/03 08:01:13;;;;;;;2.35;1.33;;;20.20;99.90;;;;;;4218127;28;20170;-87
2023/10/03 08:03:14;;;;;;;4.00;1.20;;;20.20;99.90;;;;;;4204172;28;20178;-89
2023/10/03 08:05:15;;;;;;;3.17;1.17;;;20.20;99.90;;;;;;4200613;28;20230;-86
2023/10/03 08:07:25;;;;;;;3.10;0.88;;;20.20;99.90;;;;;;4200613;28;20175;-86
2023/10/03 08:09:25;;;;;;;1.25;0.70;;;20.20;99.90;;;;;;4218495;28;20174;-92
2023/10/03 08:11:31;;;;;;;2.25;0.95;;;19.90;99.90;;;;;;4200653;28;20171;-86
2023/10/03 08:13:38;;;;;;;2.88;1.00;;;19.80;99.90;;;;;;4201210;28;20198;-96
2023/10/03 08:15:42;;;;;;;3.28;0.95;;;19.60;99.90;;;;;;4199954;28;20205;-87
2023/10/03 08:17:48;;;;;;;2.42;1.23;;;19.40;99.90;;;;;;4202245;28;20165;-87
2023/10/03 08:19:49;;;;;;;2.90;0.75;;;19.50;99.90;;;;;;4201105;28;20186;-87
2023/10/03 08:21:50;;;;;;;3.45;0.70;;;19.40;99.90;;;;;;4199374;28;20598;-86
2023/10/03 08:23:51;;;;;;;2.97;0.95;;;19.40;99.90;;;;;;4199586;28;20239;-88
2023/10/03 08:25:59;;;;;;;3.78;0.98;;;19.50;99.90;;;;;;4216145;28;20553;-86
2023/10/03 08:28:10;;;;;;;1.25;0.60;;;19.40;99.90;;;;;;4216099;28;20170;-87
2023/10/03 08:30:25;;;;;;;0.60;0.47;;;19.20;99.90;;;;;;4215477;28;20209;-86
2023/10/03 08:32:26;;;;;;;1.27;0.60;;;19.20;99.90;;;;;;4217136;28;20170;-87
2023/10/03 08:34:29;;;;;;;3.25;0.63;;;19.10;99.90;;;;;;4201094;28;20228;-86
2023/10/03 08:36:37;;;;;;;2.72;0.35;;;19.00;99.90;;;;;;4217103;28;20170;-85
2023/10/03 08:38:46;;;;;;;2.47;0.20;;;18.90;99.90;;;;;;4219682;28;20170;-87
2023/10/03 08:40:50;;;;;;;2.17;0.70;;;18.80;99.90;;;;;;4215346;28;20173;-85
2023/10/03 08:42:55;;;;;;;2.78;0.35;;;18.80;99.90;;;;;;4219202;28;20205;-86
2023/10/03 08:44:59;;;;;;;1.48;0.50;;;19.00;99.90;;;;;;4216722;28;20202;-87
2023/10/03 08:47:01;;;;;;;0.32;0.20;;;18.90;99.90;;;;;;4215834;28;20262;-86
2023/10/03 08:49:08;;;;;;;3.42;0.55;;;19.00;99.90;;;;;;4203329;28;20599;-86
2023/10/03 08:51:13;;;;;;;2.75;0.60;;;18.90;99.90;;;;;;4216221;28;20610;-86
2023/10/03 08:53:26;;;;;;;1.13;0.40;;;18.90;99.90;;;;;;4218266;28;20248;-86
2023/10/03 08:55:26;;;;;;;0.38;0.20;;;19.20;99.90;;;;;;4219895;28;20189;-89
2023/10/03 08:57:31;;;;;;;1.10;0.40;;;19.20;99.90;;;;;;4232147;28;20174;-93
2023/10/03 08:59:32;;;;;;;0.82;0.47;;;19.40;99.90;;;;;;4215379;28;20630;-88
2023/10/03 09:01:34;;;;;;;0.70;0.30;;;19.50;99.90;;;;;;4199227;28;20198;-86
2023/10/03 09:03:47;;;;;;;0.98;0.30;;;19.40;99.90;;;;;;4217866;28;20166;-87
2023/10/03 09:05:48;;;;;;;0.30;0.20;;;19.50;99.90;;;;;;4216319;28;20204;-87
2023/10/03 09:07:50;;;;;;;1.95;0.43;;;19.40;99.90;;;;;;4218786;28;20638;-86
2023/10/03 09:09:53;;;;;;;0.85;0.30;;;19.50;99.90;;;;;;4216225;28;20174;-86
2023/10/03 09:11:59;;;;;;;0.52;0.22;;;19.70;99.90;;;;;;4218365;28;20239;-86
2023/10/03 09:14:01;;;;;;;1.17;0.20;;;19.80;99.90;;;;;;4216514;28;20249;-89
2023/10/03 09:16:07;;;;;;;0.90;0.35;;;20.00;99.90;;;;;;4216893;28;20159;-86
2023/10/03 09:18:21;;;;;;;2.75;0.35;;;20.00;99.90;;;;;;4219291;28;20174;-86
2023/10/03 09:20:23;;;;;;;0.47;0.20;;;19.80;99.90;;;;;;4232672;28;20158;-86
2023/10/03 09:22:30;;;;;;;0.93;0.20;;;19.60;99.90;;;;;;4225896;22;20236;-96
2023/10/03 09:24:43;;;;;;;1.52;0.30;;;19.70;99.90;;;;;;4222489;28;20190;-96
2023/10/03 09:26:54;;;;;;;1.73;0.43;;;19.70;99.90;;;;;;4206019;28;20178;-88
2023/10/03 09:28:58;;;;;;;2.03;0.28;;;19.50;99.90;;;;;;4206952;28;20262;-90
2023/10/03 09:31:02;;;;;;;1.13;0.32;;;19.40;99.90;;;;;;4205774;28;20575;-95
2023/10/03 09:33:17;;;;;;;1.70;0.60;;;19.30;99.90;;;;;;4203651;28;20201;-88
2023/10/03 09:35:17;;;;;;;0.82;0.30;;;19.20;99.90;;;;;;4204933;28;20312;-89
2023/10/03 09:37:18;;;;;;;0.13;0.10;;;19.10;99.90;;;;;;4219983;28;20243;-88
2023/10/03 09:39:22;;;;;;;2.08;0.20;;;19.00;99.90;;;;;;4205817;28;20196;-87
2023/10/03 09:41:26;;;;;;;2.38;0.17;;;19.20;99.90;;;;;;4206168;28;20167;-88
2023/10/03 09:43:30;;;;;;;0.40;0.10;;;19.10;99.90;;;;;;4223634;28;20178;-88
2023/10/03 09:45:31;;;;;;;1.80;0.13;;;18.70;99.90;;;;;;4208445;28;20195;-95
2023/10/03 09:47:34;;;;;;;0.50;0.20;;;18.50;99.90;;;;;;4209818;28;20163;-89
2023/10/03 09:49:38;;;;;;;3.13;0.28;;;18.60;99.90;;;;;;4207475;28;20154;-96
2023/10/03 09:51:51;;;;;;;2.67;0.47;;;18.70;99.90;;;;;;4203590;28;20166;-96
2023/10/03 09:54:00;;;;;;;1.05;0.30;;;18.50;99.90;;;;;;4219952;28;20209;-96
2023/10/03 09:56:08;;;;;;;3.00;0.32;;;18.70;99.90;;;;;;4205114;28;20593;-96
2023/10/03 09:58:09;;;;;;;1.17;0.38;;;19.00;99.90;;;;;;4207416;28;20174;-96
2023/10/03 10:00:23;;;;;;;0.35;0.20;;;19.10;99.90;;;;;;4205457;28;20253;-96
2023/10/03 10:02:30;;;;;;;0.15;0.10;;;19.20;99.90;;;;;;4224142;28;20249;-88
2023/10/03 10:04:34;;;;;;;0.30;0.10;;;18.90;99.90;;;;;;4205194;28;20204;-96
2023/10/03 10:06:47;;;;;;;3.63;0.22;;;19.20;99.90;;;;;;4202305;28;20305;-89
2023/10/03 10:09:13;;;;;;;3.42;0.20;;;19.50;99.90;;;;;;4205703;28;20161;-88
2023/10/03 10:11:15;;;;;;;4.63;0.15;;;20.10;99.90;;;;;;4203592;28;20253;-88
2023/10/03 10:13:22;;;;;;;0.65;0.15;;;20.60;99.90;;;;;;4220443;28;20298;-90
2023/10/03 10:15:26;;;;;;;0.38;0.20;;;20.90;99.90;;;;;;4224519;28;20231;-90
2023/10/03 10:17:56;;;;;;;0.40;0.10;;;20.50;99.90;;;;;;4224888;28;20174;-94
2023/10/03 10:20:13;;;;;;;1.35;0.30;;;20.50;99.90;;;;;;4205707;28;20247;-89
2023/10/03 10:22:14;;;;;;;0.77;0.20;;;20.10;99.90;;;;;;4208400;28;20179;-88
2023/10/03 10:24:20;;;;;;;1.42;0.13;;;20.00;99.90;;;;;;4211253;28;20170;-96
2023/10/03 10:26:30;;;;;;;1.85;0.40;;;20.00;99.90;;;;;;4213072;28;20181;-96
2023/10/03 10:28:34;;;;;;;1.05;0.20;;;20.10;99.90;;;;;;4228686;28;20221;-94
2023/10/03 10:30:36;;;;;;;1.65;0.45;;;20.20;99.90;;;;;;4212248;28;20193;-88
2023/10/03 10:32:38;;;;;;;5.55;0.30;;;20.30;99.90;;;;;;4207767;28;20257;-96
2023/10/03 10:34:46;;;;;;;1.63;0.17;;;20.50;99.90;;;;;;4208258;28;20214;-88
2023/10/03 10:37:09;;;;;;;0.52;0.40;;;20.40;99.90;;;;;;4225792;28;20169;-96
2023/10/03 10:39:10;;;;;;;0.85;0.35;;;20.10;99.90;;;;;;4207336;28;20181;-96